Time;durP1;ratioP1;P1;durP2;ratioP2;P2;SDS_P1;SDS_P2;PMS_P1;PMS_P2;Temp;Humidity;BMP_temperature;BMP_pressure;BME280_temperature;BME280_humidity;BME280_pressure;Samples;Min_cycle;Max_cycle;Signal;HPM_P1;HPM_P2
2022/12/08 00:01:07;;;;;;;6.00;1.23;;;4.50;78.20;;;;;;5064944;28;20032;-75
2022/12/08 00:03:33;;;;;;;4.57;0.90;;;4.40;78.10;;;;;;5077582;28;20039;-76
2022/12/08 00:11:27;;;;;;;3.92;0.93;;;4.40;78.10;;;;;;5050045;28;20097;-74
2022/12/08 00:13:52;;;;;;;7.47;1.40;;;4.40;78.20;;;;;;5055205;28;20040;-74
2022/12/08 00:16:18;;;;;;;6.50;1.30;;;4.40;78.20;;;;;;5066001;28;20032;-75
2022/12/08 00:18:43;;;;;;;4.88;1.13;;;4.40;78.30;;;;;;5063740;28;20041;-76
2022/12/08 00:21:09;;;;;;;3.88;1.20;;;4.40;78.30;;;;;;5065315;28;20127;-74
2022/12/08 00:23:35;;;;;;;5.20;1.17;;;4.40;78.40;;;;;;5050374;28;20036;-74
2022/12/08 00:26:02;;;;;;;5.82;1.20;;;4.40;78.50;;;;;;5055852;28;20078;-75
2022/12/08 00:28:28;;;;;;;5.60;1.30;;;4.30;78.50;;;;;;5052870;28;20059;-74
2022/12/08 00:30:53;;;;;;;4.18;2.13;;;4.40;78.60;;;;;;5074899;28;20078;-74
2022/12/08 00:33:19;;;;;;;5.32;1.27;;;4.40;78.60;;;;;;5064721;28;20548;-74
2022/12/08 00:35:45;;;;;;;3.30;1.23;;;4.40;78.60;;;;;;5052531;28;20036;-74
2022/12/08 00:38:10;;;;;;;6.15;1.10;;;4.40;78.60;;;;;;5075521;28;20094;-74
2022/12/08 00:40:36;;;;;;;3.17;1.10;;;4.40;78.70;;;;;;5074301;28;20122;-74
2022/12/08 00:43:02;;;;;;;5.80;1.40;;;4.40;78.80;;;;;;5074193;28;20040;-74
2022/12/08 00:45:27;;;;;;;7.80;1.92;;;4.40;78.80;;;;;;5066658;28;20036;-74
2022/12/08 00:47:53;;;;;;;6.05;2.15;;;4.40;78.80;;;;;;5041544;28;20058;-74
2022/12/08 00:50:19;;;;;;;3.90;1.30;;;4.30;78.80;;;;;;5074944;28;20036;-74
2022/12/08 00:52:44;;;;;;;3.53;1.20;;;4.40;78.80;;;;;;5050536;28;20033;-74
2022/12/08 00:55:10;;;;;;;3.53;1.50;;;4.40;78.80;;;;;;5039081;28;20040;-73
2022/12/08 00:57:35;;;;;;;5.72;2.38;;;4.40;78.80;;;;;;5055597;28;20041;-74
2022/12/08 01:00:01;;;;;;;4.57;1.33;;;4.40;78.80;;;;;;5057836;28;20045;-74
2022/12/08 01:02:27;;;;;;;4.35;1.52;;;4.40;78.80;;;;;;5051801;28;20032;-75
2022/12/08 01:04:52;;;;;;;3.83;1.13;;;4.50;79.00;;;;;;5075193;28;20149;-74
2022/12/08 01:07:18;;;;;;;4.93;1.27;;;4.40;78.90;;;;;;5054144;28;20040;-74
2022/12/08 01:09:44;;;;;;;3.72;1.20;;;4.40;78.90;;;;;;5072541;28;20035;-74
2022/12/08 01:12:09;;;;;;;4.13;1.08;;;4.40;79.00;;;;;;5058221;28;20036;-74
2022/12/08 01:14:36;;;;;;;3.75;1.20;;;4.40;79.00;;;;;;5074589;28;20442;-75
2022/12/08 01:17:01;;;;;;;2.60;0.82;;;4.50;79.10;;;;;;5067661;28;20051;-74
2022/12/08 01:19:27;;;;;;;3.75;1.13;;;4.40;79.10;;;;;;5053053;28;20036;-74
2022/12/08 01:21:53;;;;;;;4.22;1.10;;;4.40;79.10;;;;;;5055517;28;20086;-74
2022/12/08 01:24:20;;;;;;;2.83;1.02;;;4.40;79.20;;;;;;5071672;28;20105;-74
2022/12/08 01:26:47;;;;;;;3.22;1.15;;;4.40;79.30;;;;;;5038300;28;20047;-74
2022/12/08 01:29:14;;;;;;;3.20;0.60;;;4.40;79.30;;;;;;5056214;28;20040;-74
2022/12/08 01:31:39;;;;;;;3.67;0.93;;;4.40;79.40;;;;;;5080842;28;20111;-74
2022/12/08 01:34:06;;;;;;;3.03;0.70;;;4.40;79.50;;;;;;5073451;28;20115;-75
2022/12/08 01:36:37;;;;;;;4.80;0.82;;;4.40;79.50;;;;;;5054764;28;20036;-73
2022/12/08 01:39:05;;;;;;;6.93;1.00;;;4.40;79.60;;;;;;5059743;28;20059;-73
2022/12/08 01:41:34;;;;;;;3.00;0.98;;;4.40;79.60;;;;;;5067011;28;20036;-73
2022/12/08 01:44:02;;;;;;;3.03;0.60;;;4.40;79.70;;;;;;5049462;28;20040;-74
2022/12/08 01:46:31;;;;;;;4.35;1.00;;;4.40;79.70;;;;;;5039214;28;20033;-74
2022/12/08 01:49:18;;;;;;;2.67;0.88;;;4.60;79.90;;;;;;5063221;28;20048;-73
2022/12/08 01:51:59;;;;;;;3.33;0.60;;;4.50;79.90;;;;;;5068786;28;20041;-73
2022/12/08 01:54:29;;;;;;;4.03;0.43;;;4.50;79.90;;;;;;5054994;28;20040;-74
2022/12/08 01:57:06;;;;;;;1.85;0.70;;;4.50;79.90;;;;;;5060349;28;20032;-74
2022/12/08 01:59:40;;;;;;;1.95;0.47;;;4.50;80.00;;;;;;5066441;28;20068;-74
2022/12/08 02:02:07;;;;;;;3.30;0.60;;;4.50;80.10;;;;;;5069917;28;20471;-74
2022/12/08 02:04:33;;;;;;;2.83;0.65;;;4.60;80.20;;;;;;5063974;28;20040;-74
2022/12/08 02:06:59;;;;;;;3.88;0.80;;;4.60;80.20;;;;;;5061277;28;20032;-74
2022/12/08 02:09:25;;;;;;;2.35;0.60;;;4.50;80.20;;;;;;5064148;28;20098;-74
2022/12/08 02:11:55;;;;;;;3.60;0.40;;;4.60;80.20;;;;;;5068365;28;20585;-74
2022/12/08 02:14:21;;;;;;;1.70;0.43;;;4.60;80.30;;;;;;5060431;28;20052;-74
2022/12/08 02:16:54;;;;;;;2.03;0.73;;;4.60;80.20;;;;;;5068491;28;20392;-74
2022/12/08 02:19:41;;;;;;;0.70;0.20;;;4.60;80.30;;;;;;5060837;28;20504;-74
2022/12/08 02:22:22;;;;;;;2.10;0.40;;;4.60;80.30;;;;;;5054184;28;20527;-74
2022/12/08 02:25:09;;;;;;;1.52;0.35;;;4.70;80.40;;;;;;5069307;28;20039;-74
2022/12/08 02:27:45;;;;;;;1.70;0.30;;;4.70;80.40;;;;;;5063584;28;20444;-74
2022/12/08 02:30:14;;;;;;;2.00;0.28;;;4.70;80.80;;;;;;5065658;28;20058;-74
2022/12/08 02:32:46;;;;;;;0.95;0.30;;;4.70;80.40;;;;;;5058995;28;20068;-74
2022/12/08 02:35:39;;;;;;;3.22;0.40;;;4.70;80.40;;;;;;5065193;28;20039;-74
2022/12/08 02:38:14;;;;;;;1.65;0.43;;;4.70;80.40;;;;;;5061881;28;20118;-75
2022/12/08 02:41:07;;;;;;;2.22;0.50;;;4.70;80.40;;;;;;5072556;28;20044;-75
2022/12/08 02:43:36;;;;;;;1.95;0.30;;;4.80;80.50;;;;;;5058602;28;20423;-74
2022/12/08 02:46:07;;;;;;;2.75;0.32;;;4.70;80.40;;;;;;5058124;28;20063;-75
2022/12/08 02:48:33;;;;;;;1.63;0.40;;;4.80;80.40;;;;;;5065963;28;20040;-74
2022/12/08 02:50:59;;;;;;;1.65;0.65;;;4.80;80.30;;;;;;5066497;28;20050;-74
2022/12/08 02:53:29;;;;;;;0.63;0.30;;;4.80;80.30;;;;;;5071847;28;20036;-74
2022/12/08 02:56:00;;;;;;;1.95;0.70;;;4.80;80.20;;;;;;5072295;28;20036;-74
2022/12/08 02:58:57;;;;;;;3.90;0.73;;;4.80;80.30;;;;;;5049146;28;20039;-75
2022/12/08 03:01:41;;;;;;;1.83;0.30;;;4.90;80.20;;;;;;5072776;28;20131;-75
2022/12/08 03:04:29;;;;;;;2.10;0.47;;;4.90;80.30;;;;;;5076783;28;20449;-74
2022/12/08 03:07:08;;;;;;;3.30;0.50;;;4.90;80.30;;;;;;5075105;28;20032;-74
2022/12/08 03:09:46;;;;;;;2.28;0.50;;;4.90;80.30;;;;;;5072737;28;20049;-74
2022/12/08 03:12:18;;;;;;;5.32;0.82;;;4.90;80.30;;;;;;5076805;28;20498;-74
2022/12/08 03:14:48;;;;;;;1.98;0.93;;;4.90;80.20;;;;;;5063709;28;20059;-73
2022/12/08 03:17:16;;;;;;;2.38;1.20;;;5.10;80.30;;;;;;5072072;28;20044;-75
2022/12/08 03:19:42;;;;;;;2.90;0.90;;;4.90;80.10;;;;;;5075527;28;20475;-75
2022/12/08 03:22:10;;;;;;;4.32;1.10;;;4.90;80.00;;;;;;5069220;28;20148;-74
2022/12/08 03:24:38;;;;;;;3.10;0.85;;;4.90;80.00;;;;;;5061615;28;20040;-75
2022/12/08 03:27:14;;;;;;;3.45;1.65;;;4.90;80.00;;;;;;5073718;28;20047;-75
2022/12/08 03:29:40;;;;;;;4.25;1.27;;;4.90;80.10;;;;;;5076043;28;20044;-74
2022/12/08 03:32:33;;;;;;;3.20;0.60;;;4.90;80.10;;;;;;5075588;28;20039;-74
2022/12/08 03:35:02;;;;;;;2.08;0.65;;;4.90;80.10;;;;;;5062172;28;20114;-74
2022/12/08 03:37:29;;;;;;;2.08;0.55;;;4.90;80.10;;;;;;5072328;28;20059;-73
2022/12/08 03:39:55;;;;;;;2.58;0.60;;;4.90;80.00;;;;;;5075483;28;20036;-75
2022/12/08 03:42:20;;;;;;;1.77;0.50;;;4.90;80.00;;;;;;5074851;28;20040;-74
2022/12/08 03:44:46;;;;;;;2.53;0.52;;;5.00;80.10;;;;;;5059720;28;20601;-75
2022/12/08 03:47:12;;;;;;;2.05;0.55;;;5.00;80.10;;;;;;5062584;28;20037;-75
2022/12/08 03:49:38;;;;;;;2.65;0.40;;;5.00;80.10;;;;;;5072394;28;20118;-74
2022/12/08 03:52:03;;;;;;;1.92;0.45;;;5.00;80.10;;;;;;5056710;28;20040;-74
2022/12/08 03:54:29;;;;;;;1.88;0.50;;;5.00;80.10;;;;;;5056649;28;20047;-74
2022/12/08 03:56:55;;;;;;;4.25;0.60;;;5.00;80.10;;;;;;5056382;28;20055;-74
2022/12/08 03:59:20;;;;;;;3.70;0.90;;;5.00;80.00;;;;;;5042736;28;20044;-74
2022/12/08 04:01:46;;;;;;;1.48;0.55;;;5.00;80.00;;;;;;5074074;28;20123;-75
2022/12/08 04:04:12;;;;;;;3.30;0.70;;;5.00;80.00;;;;;;5079685;28;20036;-74
2022/12/08 04:06:37;;;;;;;1.80;0.63;;;5.10;80.00;;;;;;5058075;28;20043;-74
2022/12/08 04:09:03;;;;;;;0.95;0.30;;;5.00;79.90;;;;;;5056402;28;20044;-74
2022/12/08 04:11:29;;;;;;;1.27;0.52;;;5.00;79.80;;;;;;5045657;28;20046;-75
2022/12/08 04:13:55;;;;;;;2.08;0.60;;;5.00;79.80;;;;;;5074571;28;20043;-74
2022/12/08 04:16:26;;;;;;;2.92;0.60;;;5.00;79.70;;;;;;5040456;28;20064;-74
2022/12/08 04:18:52;;;;;;;1.40;0.40;;;5.00;79.70;;;;;;5071653;28;20492;-74
2022/12/08 04:21:18;;;;;;;4.97;0.70;;;5.00;79.70;;;;;;5054366;28;20092;-74
2022/12/08 04:23:44;;;;;;;2.08;0.47;;;5.10;79.70;;;;;;5056264;28;20037;-74
2022/12/08 04:26:10;;;;;;;1.42;0.40;;;5.00;79.60;;;;;;5061073;28;20040;-74
2022/12/08 04:28:36;;;;;;;1.08;0.30;;;5.00;79.50;;;;;;5060567;28;20037;-75
2022/12/08 04:31:02;;;;;;;1.55;0.40;;;5.00;79.40;;;;;;5064461;28;20044;-75
2022/12/08 04:33:28;;;;;;;2.22;0.50;;;5.00;79.50;;;;;;5072045;28;20068;-74
2022/12/08 04:35:53;;;;;;;1.23;0.60;;;5.00;79.40;;;;;;5071713;28;20064;-75
2022/12/08 04:38:19;;;;;;;1.98;0.60;;;5.00;79.40;;;;;;5071814;28;20380;-75
2022/12/08 04:40:45;;;;;;;3.38;0.60;;;4.90;79.30;;;;;;5056201;28;20118;-75
2022/12/08 04:43:10;;;;;;;1.08;0.70;;;5.00;79.40;;;;;;5052928;28;20039;-75
2022/12/08 04:45:39;;;;;;;2.45;0.80;;;5.00;79.40;;;;;;5070276;28;20039;-75
2022/12/08 04:48:05;;;;;;;4.50;0.82;;;5.00;79.40;;;;;;5039160;28;20044;-75
2022/12/08 04:50:31;;;;;;;2.28;0.70;;;5.00;79.40;;;;;;5068428;28;20396;-74
2022/12/08 04:52:57;;;;;;;3.55;0.88;;;5.00;79.30;;;;;;5062598;28;20040;-74
2022/12/08 04:55:22;;;;;;;2.42;0.73;;;5.00;79.30;;;;;;5035690;28;20072;-75
2022/12/08 04:57:48;;;;;;;1.83;0.60;;;5.00;79.30;;;;;;5058913;28;20040;-74
2022/12/08 05:00:15;;;;;;;3.10;1.00;;;5.00;79.20;;;;;;5069606;28;20389;-75
2022/12/08 05:02:40;;;;;;;2.55;0.90;;;5.00;79.30;;;;;;5065685;28;20481;-75
2022/12/08 05:05:06;;;;;;;3.38;0.73;;;5.00;79.20;;;;;;5036627;28;20044;-75
2022/12/08 05:07:32;;;;;;;4.63;0.75;;;5.00;79.30;;;;;;5082701;28;20048;-75
2022/12/08 05:09:58;;;;;;;1.77;0.60;;;4.90;79.20;;;;;;5058165;28;20043;-75
2022/12/08 05:12:24;;;;;;;3.22;0.60;;;4.90;79.20;;;;;;5035409;28;20041;-75
2022/12/08 05:14:49;;;;;;;2.85;0.70;;;5.00;79.30;;;;;;5067200;28;20448;-75
2022/12/08 05:17:16;;;;;;;4.07;0.85;;;4.90;79.20;;;;;;5051483;28;20051;-75
2022/12/08 05:19:42;;;;;;;2.13;0.70;;;4.90;79.20;;;;;;5072288;28;20040;-75
2022/12/08 05:22:08;;;;;;;1.52;0.75;;;4.90;79.20;;;;;;5044814;28;20427;-75
2022/12/08 05:24:34;;;;;;;1.73;0.70;;;5.00;79.30;;;;;;5067614;28;20451;-75
2022/12/08 05:26:59;;;;;;;1.45;0.50;;;4.90;79.20;;;;;;5071136;28;20119;-74
2022/12/08 05:29:25;;;;;;;0.90;0.43;;;4.90;79.20;;;;;;5061405;28;20048;-75
2022/12/08 05:31:51;;;;;;;2.38;0.63;;;4.90;79.30;;;;;;5053491;28;20091;-75
2022/12/08 05:34:16;;;;;;;1.38;0.50;;;4.90;79.20;;;;;;5067594;28;20044;-75
2022/12/08 05:36:42;;;;;;;1.15;0.50;;;4.90;79.20;;;;;;5070587;28;20096;-76
2022/12/08 05:39:11;;;;;;;2.40;0.73;;;4.90;79.20;;;;;;5054264;28;20068;-76
2022/12/08 05:41:37;;;;;;;1.17;0.40;;;4.90;79.20;;;;;;5061900;28;20167;-76
2022/12/08 05:44:02;;;;;;;3.28;0.60;;;4.90;79.20;;;;;;5048282;28;20516;-76
2022/12/08 05:46:28;;;;;;;2.58;0.40;;;4.90;79.20;;;;;;5050963;28;20527;-75
2022/12/08 05:48:54;;;;;;;1.33;0.40;;;4.90;79.20;;;;;;5067858;28;20041;-75
2022/12/08 05:51:21;;;;;;;0.98;0.30;;;4.90;79.20;;;;;;5057308;28;20036;-75
2022/12/08 05:53:48;;;;;;;1.75;0.45;;;5.00;79.30;;;;;;5053753;28;20041;-78
2022/12/08 05:56:14;;;;;;;2.20;0.75;;;4.90;79.30;;;;;;5064259;28;20046;-75
2022/12/08 05:58:40;;;;;;;0.98;0.30;;;4.90;79.30;;;;;;5065655;28;20045;-76
2022/12/08 06:01:06;;;;;;;0.80;0.38;;;4.90;79.30;;;;;;5059239;28;20038;-76
2022/12/08 06:03:32;;;;;;;1.05;0.40;;;4.90;79.30;;;;;;5059021;28;20033;-76
2022/12/08 06:05:58;;;;;;;3.60;1.10;;;4.90;79.30;;;;;;5068329;28;20041;-75
2022/12/08 06:08:24;;;;;;;2.58;0.60;;;4.90;79.20;;;;;;5070936;28;20524;-75
2022/12/08 06:10:49;;;;;;;0.40;0.40;;;4.90;79.30;;;;;;5062175;28;20449;-76
2022/12/08 06:13:15;;;;;;;1.92;0.82;;;4.90;79.20;;;;;;5028671;28;20446;-75
2022/12/08 06:15:41;;;;;;;2.40;0.50;;;5.00;79.30;;;;;;5056922;28;20048;-75
2022/12/08 06:18:09;;;;;;;2.08;0.60;;;4.90;79.20;;;;;;5062788;28;20044;-75
2022/12/08 06:20:34;;;;;;;1.17;0.45;;;5.00;79.30;;;;;;5066683;28;20032;-75
2022/12/08 06:23:00;;;;;;;1.35;0.73;;;5.00;79.30;;;;;;5057126;28;20053;-75
2022/12/08 06:25:26;;;;;;;1.05;0.47;;;5.00;79.30;;;;;;5054885;28;20491;-76
2022/12/08 06:27:52;;;;;;;3.13;0.68;;;4.90;79.20;;;;;;5055148;28;20068;-74
2022/12/08 06:30:18;;;;;;;2.08;0.50;;;4.90;79.10;;;;;;5056711;28;20458;-75
2022/12/08 06:32:43;;;;;;;1.65;0.47;;;4.90;79.50;;;;;;5059342;28;20435;-75
2022/12/08 06:35:09;;;;;;;2.08;0.63;;;4.90;79.10;;;;;;5063397;28;20036;-75
2022/12/08 06:37:35;;;;;;;1.10;0.32;;;4.90;79.10;;;;;;5071241;28;20043;-75
2022/12/08 06:40:01;;;;;;;1.77;0.40;;;5.00;79.10;;;;;;5057098;28;20048;-75
2022/12/08 06:42:46;;;;;;;1.17;0.47;;;4.90;79.10;;;;;;5057566;28;20047;-75
2022/12/08 06:45:16;;;;;;;3.90;0.88;;;4.90;79.10;;;;;;5058413;28;20040;-75
2022/12/08 06:47:42;;;;;;;1.25;0.40;;;4.90;79.10;;;;;;5045365;28;20123;-75
2022/12/08 06:50:09;;;;;;;1.70;0.80;;;4.90;79.10;;;;;;5064375;28;20128;-75
2022/12/08 06:52:35;;;;;;;2.17;0.50;;;4.90;79.10;;;;;;5040723;28;20089;-75
2022/12/08 06:55:01;;;;;;;1.17;0.60;;;4.90;79.10;;;;;;5057220;28;20045;-74
2022/12/08 06:57:27;;;;;;;1.33;0.52;;;4.90;79.10;;;;;;5060801;28;20048;-74
2022/12/08 06:59:52;;;;;;;3.20;1.02;;;4.90;79.10;;;;;;5067047;28;20044;-74
2022/12/08 07:02:18;;;;;;;3.53;0.63;;;4.90;79.00;;;;;;5054113;28;20048;-74
2022/12/08 07:04:44;;;;;;;2.42;0.40;;;4.90;79.00;;;;;;5061692;28;20385;-74
2022/12/08 07:07:09;;;;;;;1.77;0.40;;;4.80;78.80;;;;;;5061756;28;20036;-76
2022/12/08 07:09:35;;;;;;;2.92;0.32;;;4.90;78.90;;;;;;5073254;28;20047;-75
2022/12/08 07:12:03;;;;;;;2.78;0.45;;;4.90;79.00;;;;;;5056339;28;20068;-75
2022/12/08 07:14:29;;;;;;;2.10;0.20;;;4.90;79.00;;;;;;5057894;28;20448;-75
2022/12/08 07:16:55;;;;;;;0.85;0.55;;;4.90;78.90;;;;;;5066278;28;20118;-75
2022/12/08 07:19:20;;;;;;;2.15;0.40;;;4.90;79.00;;;;;;5065582;28;20048;-75
2022/12/08 07:21:46;;;;;;;1.60;0.20;;;4.80;78.90;;;;;;5073293;28;20044;-74
2022/12/08 07:24:12;;;;;;;1.33;0.30;;;4.90;79.00;;;;;;5055716;28;20548;-75
2022/12/08 07:26:39;;;;;;;2.15;0.43;;;4.90;79.00;;;;;;5071961;28;20467;-74
2022/12/08 07:29:05;;;;;;;2.22;0.35;;;4.80;78.90;;;;;;5071600;28;20029;-75
2022/12/08 07:31:31;;;;;;;3.60;0.77;;;4.80;78.90;;;;;;5072190;28;20098;-75
2022/12/08 07:33:57;;;;;;;1.67;0.50;;;4.80;78.90;;;;;;5065020;28;20076;-68
2022/12/08 07:36:24;;;;;;;1.60;0.40;;;4.80;78.90;;;;;;5064273;28;20057;-75
2022/12/08 07:38:52;;;;;;;0.85;0.35;;;4.90;79.00;;;;;;5053352;28;20120;-75
2022/12/08 07:41:20;;;;;;;0.85;0.32;;;4.90;78.90;;;;;;5068909;28;20087;-75
2022/12/08 07:43:46;;;;;;;1.42;0.28;;;4.80;78.90;;;;;;5071537;28;20045;-75
2022/12/08 07:46:13;;;;;;;2.00;0.35;;;4.80;78.80;;;;;;5072652;28;20040;-75
2022/12/08 07:48:39;;;;;;;1.63;0.35;;;4.80;78.80;;;;;;5056009;28;20040;-76
2022/12/08 07:51:05;;;;;;;2.55;0.38;;;4.80;78.80;;;;;;5068532;28;20571;-75
2022/12/08 07:53:32;;;;;;;2.33;0.32;;;4.80;78.80;;;;;;5053298;28;20041;-75
2022/12/08 07:55:58;;;;;;;0.65;0.17;;;4.80;78.80;;;;;;5054780;28;20140;-75
2022/12/08 07:58:24;;;;;;;1.15;0.30;;;4.80;78.80;;;;;;5053054;28;20434;-75
2022/12/08 08:00:51;;;;;;;1.02;0.40;;;4.80;78.80;;;;;;5044752;28;20029;-75
2022/12/08 08:03:16;;;;;;;1.08;0.28;;;4.80;78.70;;;;;;5068876;28;20388;-75
2022/12/08 08:05:43;;;;;;;3.33;0.60;;;4.80;78.70;;;;;;5061332;28;20041;-75
2022/12/08 08:08:09;;;;;;;4.78;0.40;;;4.80;78.70;;;;;;5052861;28;20041;-76
2022/12/08 08:10:35;;;;;;;1.95;0.50;;;4.80;78.70;;;;;;5044239;28;20380;-75
2022/12/08 08:13:01;;;;;;;1.02;0.30;;;4.80;78.70;;;;;;5069449;28;20048;-75
2022/12/08 08:15:27;;;;;;;1.33;0.38;;;4.80;78.70;;;;;;5072068;28;20586;-75
2022/12/08 08:17:53;;;;;;;1.08;0.40;;;4.80;78.70;;;;;;5071684;28;20115;-75
2022/12/08 08:20:20;;;;;;;2.97;0.60;;;4.80;78.70;;;;;;5053574;28;20095;-75
2022/12/08 08:22:47;;;;;;;2.45;0.65;;;4.80;78.80;;;;;;5052367;28;20515;-75
2022/12/08 08:25:14;;;;;;;1.55;0.60;;;4.80;78.80;;;;;;5044941;28;20079;-75
2022/12/08 08:27:40;;;;;;;3.63;0.77;;;4.70;78.80;;;;;;5071959;28;20365;-75
2022/12/08 08:30:07;;;;;;;2.83;0.75;;;4.80;78.80;;;;;;5071852;28;20037;-76
2022/12/08 08:32:34;;;;;;;2.60;0.50;;;4.80;78.80;;;;;;5036823;28;20041;-75
2022/12/08 08:34:59;;;;;;;3.38;0.85;;;4.80;78.80;;;;;;5049453;28;20117;-75
2022/12/08 08:37:26;;;;;;;4.00;0.85;;;4.80;78.80;;;;;;5061253;28;20044;-75
2022/12/08 08:39:51;;;;;;;2.58;0.80;;;4.70;78.80;;;;;;5071524;28;20055;-75
2022/12/08 08:42:17;;;;;;;2.00;0.68;;;4.80;78.80;;;;;;5063561;28;20037;-75
2022/12/08 08:44:43;;;;;;;2.33;0.50;;;4.80;78.80;;;;;;5052158;28;20041;-76
2022/12/08 08:47:09;;;;;;;3.08;0.75;;;4.80;78.90;;;;;;5051991;28;20037;-75
2022/12/08 08:49:34;;;;;;;1.77;0.60;;;4.80;78.90;;;;;;5037401;28;20392;-75
2022/12/08 08:52:00;;;;;;;1.75;0.50;;;4.70;78.80;;;;;;5051935;28;20041;-76
2022/12/08 08:54:28;;;;;;;1.25;0.50;;;4.70;78.80;;;;;;5052031;28;20373;-75
2022/12/08 08:56:55;;;;;;;2.97;0.52;;;4.70;78.90;;;;;;5053931;28;20037;-75
2022/12/08 08:59:21;;;;;;;0.88;0.50;;;4.80;79.40;;;;;;5071058;28;20052;-75
2022/12/08 09:01:47;;;;;;;1.70;0.57;;;4.80;79.10;;;;;;5054714;28;20033;-75
2022/12/08 09:04:12;;;;;;;2.92;0.60;;;4.70;79.00;;;;;;5054987;28;20124;-74
2022/12/08 09:06:38;;;;;;;2.40;0.77;;;4.80;79.10;;;;;;5048680;28;20072;-75
2022/12/08 09:09:04;;;;;;;1.50;0.55;;;4.80;79.10;;;;;;5035224;28;20039;-75
2022/12/08 09:11:31;;;;;;;1.95;0.68;;;4.80;79.10;;;;;;5052027;28;20040;-75
2022/12/08 09:13:56;;;;;;;3.03;0.65;;;4.80;79.20;;;;;;5051898;28;20396;-76
2022/12/08 09:16:23;;;;;;;2.78;0.70;;;4.80;79.20;;;;;;5051700;28;20033;-76
2022/12/08 09:18:49;;;;;;;3.78;0.65;;;4.80;79.20;;;;;;5058040;28;20047;-76
2022/12/08 09:21:21;;;;;;;1.50;0.50;;;4.80;79.20;;;;;;5070619;28;20573;-76
2022/12/08 09:23:48;;;;;;;1.48;0.68;;;4.80;79.10;;;;;;5056566;28;20037;-76
2022/12/08 09:26:13;;;;;;;3.45;0.90;;;4.80;79.10;;;;;;5061186;28;20025;-75
2022/12/08 09:28:45;;;;;;;3.13;1.05;;;4.80;79.10;;;;;;5063546;28;20089;-75
2022/12/08 09:31:12;;;;;;;3.35;1.30;;;4.80;79.10;;;;;;5055186;28;20395;-75
2022/12/08 09:33:38;;;;;;;3.33;1.30;;;4.80;79.10;;;;;;5063331;28;20403;-75
2022/12/08 09:36:04;;;;;;;2.45;0.75;;;4.80;79.10;;;;;;5061499;28;20044;-75
2022/12/08 09:38:30;;;;;;;1.95;0.93;;;4.80;79.10;;;;;;5042707;28;20407;-76
2022/12/08 09:40:55;;;;;;;1.63;1.00;;;4.90;79.20;;;;;;5034908;28;20049;-76
2022/12/08 09:43:24;;;;;;;1.75;1.00;;;4.90;79.30;;;;;;5062896;28;20407;-76
2022/12/08 09:45:50;;;;;;;3.38;1.40;;;4.90;79.30;;;;;;5062158;28;21818;-76
2022/12/08 09:48:30;;;;;;;1.20;0.90;;;4.90;79.30;;;;;;5065519;28;20062;-76
2022/12/08 09:50:57;;;;;;;2.75;1.13;;;4.90;79.30;;;;;;5066412;28;20048;-76
2022/12/08 09:53:45;;;;;;;2.40;1.10;;;4.90;79.30;;;;;;5044362;28;20075;-74
2022/12/08 09:56:18;;;;;;;2.80;1.30;;;4.90;79.30;;;;;;5040263;28;20033;-76
2022/12/08 09:58:52;;;;;;;4.30;1.60;;;4.90;79.30;;;;;;5055231;28;20522;-74
2022/12/08 10:01:20;;;;;;;3.55;1.58;;;4.90;79.30;;;;;;5056680;28;20040;-74
2022/12/08 10:03:47;;;;;;;2.70;1.02;;;4.90;79.30;;;;;;5071880;28;20039;-75
2022/12/08 10:06:27;;;;;;;3.70;1.30;;;4.90;79.30;;;;;;5062723;28;20119;-75
2022/12/08 10:09:15;;;;;;;3.35;1.23;;;5.00;79.40;;;;;;5057068;28;20126;-75
2022/12/08 10:11:54;;;;;;;5.70;1.38;;;5.00;79.40;;;;;;5057326;28;20033;-75
2022/12/08 10:14:43;;;;;;;3.17;1.45;;;5.00;79.40;;;;;;5069604;28;20033;-76
2022/12/08 10:17:25;;;;;;;3.42;1.40;;;5.00;79.40;;;;;;5027902;28;20088;-77
2022/12/08 10:19:59;;;;;;;3.38;1.33;;;5.00;79.50;;;;;;5054954;28;20123;-77
2022/12/08 10:22:30;;;;;;;4.30;1.33;;;5.00;80.00;;;;;;5049913;28;20057;-77
2022/12/08 10:25:10;;;;;;;2.83;1.23;;;5.00;79.60;;;;;;5074027;28;20126;-77
2022/12/08 10:27:36;;;;;;;4.25;1.50;;;5.00;79.60;;;;;;5063265;28;20047;-77
2022/12/08 10:30:09;;;;;;;2.00;1.00;;;5.00;79.50;;;;;;5062367;28;20109;-76
2022/12/08 10:32:35;;;;;;;1.63;1.02;;;5.00;79.40;;;;;;5062212;28;20040;-76
2022/12/08 10:35:13;;;;;;;4.40;1.42;;;5.10;79.50;;;;;;5057765;28;20052;-77
2022/12/08 10:37:39;;;;;;;3.88;1.20;;;5.10;79.40;;;;;;5045682;28;20068;-77
2022/12/08 10:40:17;;;;;;;3.75;1.45;;;5.10;79.30;;;;;;5069945;28;20079;-76
2022/12/08 10:42:47;;;;;;;3.58;1.10;;;5.10;79.20;;;;;;5074417;28;20044;-77
2022/12/08 10:45:37;;;;;;;4.10;1.35;;;5.10;79.10;;;;;;5066045;28;20032;-76
2022/12/08 10:48:08;;;;;;;2.47;1.10;;;5.10;79.00;;;;;;5073807;28;20072;-77
2022/12/08 10:50:40;;;;;;;3.83;1.15;;;5.10;79.00;;;;;;5055354;28;20488;-78
2022/12/08 10:53:19;;;;;;;3.75;1.27;;;5.10;79.00;;;;;;5054679;28;20393;-77
2022/12/08 10:56:13;;;;;;;2.10;1.17;;;5.10;79.00;;;;;;5054479;28;20029;-77
2022/12/08 10:58:44;;;;;;;1.83;1.15;;;5.00;78.80;;;;;;5063274;28;20045;-77
2022/12/08 11:01:18;;;;;;;3.15;1.20;;;5.10;78.90;;;;;;5073917;28;20538;-77
2022/12/08 11:03:54;;;;;;;2.60;1.30;;;5.10;78.80;;;;;;5072167;28;20037;-77
2022/12/08 11:06:31;;;;;;;3.78;1.50;;;5.00;78.70;;;;;;5066205;28;20488;-77
2022/12/08 11:09:00;;;;;;;1.75;1.08;;;5.10;78.70;;;;;;5064845;28;20059;-77
2022/12/08 11:12:05;;;;;;;4.22;1.60;;;5.00;78.70;;;;;;5069136;28;20113;-77
2022/12/08 11:14:42;;;;;;;5.57;1.40;;;5.00;78.70;;;;;;5070141;28;20432;-77
2022/12/08 11:17:14;;;;;;;3.97;1.63;;;5.00;78.90;;;;;;5056330;28;20487;-77
2022/12/08 11:19:42;;;;;;;3.60;1.77;;;5.00;78.90;;;;;;5057023;28;20036;-77
2022/12/08 11:22:33;;;;;;;5.75;1.75;;;5.00;79.00;;;;;;5053875;28;20049;-77
2022/12/08 11:25:22;;;;;;;3.55;1.60;;;5.00;79.10;;;;;;5064525;28;20053;-77
2022/12/08 11:27:50;;;;;;;5.90;2.35;;;5.00;79.20;;;;;;5073009;28;20090;-76
2022/12/08 11:30:20;;;;;;;5.95;2.40;;;5.10;79.30;;;;;;5043936;28;20044;-76
2022/12/08 11:32:49;;;;;;;7.80;2.38;;;5.10;79.30;;;;;;5061762;28;20106;-77
2022/12/08 11:35:36;;;;;;;3.33;1.70;;;5.10;79.40;;;;;;5064646;28;20068;-77
2022/12/08 11:38:08;;;;;;;4.95;2.47;;;5.10;79.50;;;;;;5054849;28;20045;-75
2022/12/08 11:40:38;;;;;;;4.75;2.45;;;5.10;79.60;;;;;;5053653;28;20455;-77
2022/12/08 11:43:25;;;;;;;7.65;2.00;;;5.20;79.70;;;;;;5069420;28;20506;-75
2022/12/08 11:45:58;;;;;;;4.18;2.17;;;5.10;79.70;;;;;;5061618;28;20036;-76
2022/12/08 11:48:43;;;;;;;5.68;2.80;;;5.10;79.80;;;;;;5060834;28;20131;-76
2022/12/08 11:51:42;;;;;;;6.00;2.63;;;5.20;79.90;;;;;;5070724;28;20442;-78
2022/12/08 11:54:09;;;;;;;6.70;2.67;;;5.20;79.90;;;;;;5063589;28;20040;-78
2022/12/08 11:56:37;;;;;;;4.80;2.20;;;5.20;79.90;;;;;;5042106;28;20040;-77
2022/12/08 11:59:09;;;;;;;5.40;2.45;;;5.20;79.90;;;;;;5047833;28;20049;-78
2022/12/08 12:01:35;;;;;;;6.85;3.17;;;5.20;80.00;;;;;;5061427;28;20127;-78
2022/12/08 12:04:10;;;;;;;4.78;1.98;;;5.30;80.00;;;;;;5036821;28;20124;-78
2022/12/08 12:07:09;;;;;;;4.22;2.20;;;5.30;80.10;;;;;;5064022;28;20041;-78
2022/12/08 12:10:20;;;;;;;5.10;2.47;;;5.30;80.20;;;;;;5063749;28;20032;-78
2022/12/08 12:12:54;;;;;;;6.25;2.20;;;5.30;80.20;;;;;;5072599;28;20032;-78
2022/12/08 12:16:05;;;;;;;3.33;1.88;;;5.30;80.30;;;;;;5048059;28;20059;-78
2022/12/08 12:18:40;;;;;;;6.13;3.10;;;5.40;80.50;;;;;;5061590;28;20037;-78
2022/12/08 12:21:12;;;;;;;6.00;2.95;;;5.40;80.50;;;;;;5038569;28;20107;-78
2022/12/08 12:23:40;;;;;;;6.65;3.05;;;5.50;80.60;;;;;;5056085;28;20059;-78
2022/12/08 12:26:08;;;;;;;7.15;2.90;;;5.50;80.60;;;;;;5039695;28;20138;-77
2022/12/08 12:29:00;;;;;;;7.03;3.47;;;5.60;80.60;;;;;;5058669;28;20033;-78
2022/12/08 12:31:58;;;;;;;4.68;1.92;;;5.60;80.50;;;;;;5058316;28;20115;-79
2022/12/08 12:34:28;;;;;;;4.70;1.88;;;5.60;80.20;;;;;;5063805;28;20127;-78
2022/12/08 12:37:02;;;;;;;4.43;1.70;;;5.70;80.00;;;;;;5063103;28;20376;-78
2022/12/08 12:39:30;;;;;;;3.83;1.33;;;5.60;79.80;;;;;;5063514;28;20487;-79
2022/12/08 12:42:01;;;;;;;3.88;1.50;;;5.60;79.60;;;;;;5056161;28;20158;-79
2022/12/08 12:44:27;;;;;;;3.90;1.42;;;5.70;79.50;;;;;;5073117;28;20040;-79
2022/12/08 12:46:56;;;;;;;5.47;1.55;;;5.70;79.30;;;;;;5081650;28;20104;-79
2022/12/08 12:49:39;;;;;;;4.78;1.60;;;5.70;79.20;;;;;;5067656;28;20391;-79
2022/12/08 12:52:14;;;;;;;1.95;1.13;;;5.70;79.00;;;;;;5058513;28;20051;-79
2022/12/08 12:55:04;;;;;;;3.55;1.60;;;5.80;79.10;;;;;;5040419;28;20041;-78
2022/12/08 12:57:38;;;;;;;5.35;1.63;;;5.70;79.00;;;;;;5055410;28;20036;-79
2022/12/08 13:00:04;;;;;;;;;;;5.70;79.00;;;;;;5064111;28;20475;-79
2022/12/08 13:02:32;;;;;;;3.95;1.38;;;5.80;78.70;;;;;;5055606;28;19965;-79
2022/12/08 13:05:02;;;;;;;2.65;1.23;;;5.80;79.00;;;;;;5092400;28;20480;-78
2022/12/08 13:07:35;;;;;;;3.60;1.63;;;5.80;78.70;;;;;;5059441;28;20068;-78
2022/12/08 13:10:09;;;;;;;3.90;1.50;;;5.80;78.60;;;;;;5055409;28;20048;-78
2022/12/08 13:12:35;;;;;;;4.20;1.65;;;5.80;78.50;;;;;;5063740;28;20066;-79
2022/12/08 13:15:04;;;;;;;11.88;7.90;;;5.80;78.50;;;;;;5055223;28;20492;-79
2022/12/08 13:17:34;;;;;;;16.67;10.77;;;5.80;78.50;;;;;;5055503;28;20040;-75